METAR AND TAF INFORMATION
METAR FOR KDMW
ADDS - METARS form results

(0952 UTC 05 July 2020)
Data provider http://aviationweather.gov/metar/data/
 
METAR text: KDMW 050935Z AUTO 00000KT 7SM CLR 23/20 A2998 RMK AO2
Conditions at: KDMW (CARROLL CNTY , MD, US) observed 0935 UTC 05 July 2020
Temperature: 23.0°C (73°F)
Dewpoint: 20.0°C (68°F) [RH = 83%]
Pressure (altimeter): 29.98 inches Hg (1015.3 mb)
Winds: calm
Visibility: 7 miles (11 km)
Ceiling: at least 12,000 feet AGL
Clouds: sky clear below 12,000 feet AGL
Weather: automated observation with no human augmentation;
there may or may not be significant weather present at this time

METAR text: KDMW 050915Z AUTO 00000KT 7SM CLR 23/21 A2998 RMK AO2
Conditions at: KDMW (CARROLL CNTY , MD, US) observed 0915 UTC 05 July 2020
Temperature: 23.0°C (73°F)
Dewpoint: 21.0°C (70°F) [RH = 89%]
Pressure (altimeter): 29.98 inches Hg (1015.3 mb)
Winds: calm
Visibility: 7 miles (11 km)
Ceiling: at least 12,000 feet AGL
Clouds: sky clear below 12,000 feet AGL
Weather: automated observation with no human augmentation;
there may or may not be significant weather present at this time

METAR text: KDMW 050855Z AUTO 00000KT 7SM CLR 23/20 A2997 RMK AO2
Conditions at: KDMW (CARROLL CNTY , MD, US) observed 0855 UTC 05 July 2020
Temperature: 23.0°C (73°F)
Dewpoint: 20.0°C (68°F) [RH = 83%]
Pressure (altimeter): 29.97 inches Hg (1015.0 mb)
Winds: calm
Visibility: 7 miles (11 km)
Ceiling: at least 12,000 feet AGL
Clouds: sky clear below 12,000 feet AGL
Weather: automated observation with no human augmentation;
there may or may not be significant weather present at this time

 AIRPORT MAP

 RUNWAY INFORMATION
Runway 16 Runway length 5100 ft Runway width 100 ft
Runway elevation 789 ft Runway displaced threshold 0 ft Runway heading 148
Runway 34 Runway length 5100 ft Runway width 100 ft
Runway elevation 774 ft Runway displaced threshold 0 ft Runway heading 328

 AIRPORT FREQUENCIES
Type A/D Name POTOMAC AP Frequency 126.75 MHZ
Type AWOS Name AWOS 3 Frequency 121.25 MHZ
Type RDO Name LEESBURG R Frequency 117.9 MHZ
Type UNIC Name CTAF/UNICO Frequency 122.7 MHZ

 AIRPORT NEAR NAVIGATION AIDS